sensor_id;sensor_type;location;lat;lon;timestamp;pressure;altitude;pressure_sealevel;temperature;humidity
68199;BME280;55021;51.554;17.044;2023-05-02T00:12:29;100298.59;;;13.06;64.83
68199;BME280;55021;51.554;17.044;2023-05-02T00:27:31;100250.63;;;12.74;64.97
68199;BME280;55021;51.554;17.044;2023-05-02T00:42:34;100273.81;;;12.93;65.58
68199;BME280;55021;51.554;17.044;2023-05-02T00:57:37;100284.06;;;13.29;65.56
68199;BME280;55021;51.554;17.044;2023-05-02T01:12:41;100289.59;;;13.83;65.48
68199;BME280;55021;51.554;17.044;2023-05-02T01:28:04;100297.03;;;14.20;65.49
68199;BME280;55021;51.554;17.044;2023-05-02T01:43:13;100282.56;;;14.42;63.83
68199;BME280;55021;51.554;17.044;2023-05-02T01:58:18;100305.19;;;14.42;65.33
68199;BME280;55021;51.554;17.044;2023-05-02T02:13:26;100289.03;;;14.41;65.50
68199;BME280;55021;51.554;17.044;2023-05-02T02:28:29;100272.13;;;14.31;65.84
68199;BME280;55021;51.554;17.044;2023-05-02T02:43:35;100307.72;;;14.44;66.35
68199;BME280;55021;51.554;17.044;2023-05-02T02:58:54;100329.38;;;14.83;64.54
68199;BME280;55021;51.554;17.044;2023-05-02T03:13:58;100347.06;;;13.80;68.51
68199;BME280;55021;51.554;17.044;2023-05-02T03:29:02;100356.63;;;13.76;68.56
68199;BME280;55021;51.554;17.044;2023-05-02T03:44:05;100335.75;;;13.13;71.01
68199;BME280;55021;51.554;17.044;2023-05-02T03:59:07;100397.00;;;13.48;71.21
68199;BME280;55021;51.554;17.044;2023-05-02T04:14:10;100425.03;;;12.76;76.52
68199;BME280;55021;51.554;17.044;2023-05-02T04:29:13;100428.78;;;12.83;78.43
68199;BME280;55021;51.554;17.044;2023-05-02T04:44:16;100431.50;;;12.59;79.95
68199;BME280;55021;51.554;17.044;2023-05-02T04:59:18;100478.09;;;12.54;84.11
68199;BME280;55021;51.554;17.044;2023-05-02T05:14:21;100444.19;;;13.31;79.30
68199;BME280;55021;51.554;17.044;2023-05-02T05:29:24;100507.19;;;14.69;76.40
68199;BME280;55021;51.554;17.044;2023-05-02T05:44:26;100531.22;;;14.10;79.05
68199;BME280;55021;51.554;17.044;2023-05-02T05:59:28;100537.25;;;14.83;74.23
68199;BME280;55021;51.554;17.044;2023-05-02T06:14:31;100546.09;;;15.31;71.01
68199;BME280;55021;51.554;17.044;2023-05-02T06:29:33;100523.06;;;15.33;71.77
68199;BME280;55021;51.554;17.044;2023-05-02T06:44:35;100585.25;;;16.27;68.53
68199;BME280;55021;51.554;17.044;2023-05-02T06:59:38;100634.81;;;16.01;68.81
68199;BME280;55021;51.554;17.044;2023-05-02T07:14:40;100544.72;;;16.89;61.43
68199;BME280;55021;51.554;17.044;2023-05-02T07:29:43;100640.00;;;17.85;57.67
68199;BME280;55021;51.554;17.044;2023-05-02T07:44:48;100650.31;;;18.32;56.45
68199;BME280;55021;51.554;17.044;2023-05-02T07:59:51;100671.69;;;19.18;52.91
68199;BME280;55021;51.554;17.044;2023-05-02T08:14:53;100681.63;;;18.50;51.22
68199;BME280;55021;51.554;17.044;2023-05-02T08:29:55;100693.34;;;19.47;52.16
68199;BME280;55021;51.554;17.044;2023-05-02T08:44:58;100688.19;;;18.84;49.47
68199;BME280;55021;51.554;17.044;2023-05-02T09:00:00;100714.19;;;19.29;49.07
68199;BME280;55021;51.554;17.044;2023-05-02T09:15:10;100712.13;;;20.37;47.34
68199;BME280;55021;51.554;17.044;2023-05-02T09:30:21;100731.06;;;21.24;48.31
68199;BME280;55021;51.554;17.044;2023-05-02T09:45:25;100745.56;;;20.60;46.42
68199;BME280;55021;51.554;17.044;2023-05-02T10:00:42;100764.97;;;20.26;46.62
68199;BME280;55021;51.554;17.044;2023-05-02T10:15:45;100758.41;;;20.47;48.03
68199;BME280;55021;51.554;17.044;2023-05-02T10:30:50;100781.69;;;20.51;46.41
68199;BME280;55021;51.554;17.044;2023-05-02T10:45:55;100766.66;;;20.20;46.51
68199;BME280;55021;51.554;17.044;2023-05-02T11:01:34;100799.06;;;20.58;45.70
68199;BME280;55021;51.554;17.044;2023-05-02T11:32:05;100819.22;;;19.57;46.14
68199;BME280;55021;51.554;17.044;2023-05-02T11:47:08;100819.75;;;20.40;50.59
68199;BME280;55021;51.554;17.044;2023-05-02T12:02:10;100810.75;;;19.52;49.07
68199;BME280;55021;51.554;17.044;2023-05-02T12:17:13;100797.53;;;20.29;45.88
68199;BME280;55021;51.554;17.044;2023-05-02T12:32:26;100861.44;;;19.90;47.38
68199;BME280;55021;51.554;17.044;2023-05-02T12:47:29;100847.97;;;20.08;44.03
68199;BME280;55021;51.554;17.044;2023-05-02T13:02:45;100871.97;;;20.40;45.37
68199;BME280;55021;51.554;17.044;2023-05-02T13:17:50;100868.88;;;21.48;42.16
68199;BME280;55021;51.554;17.044;2023-05-02T13:32:52;100807.81;;;19.94;44.37
68199;BME280;55021;51.554;17.044;2023-05-02T13:47:55;100877.88;;;20.37;42.94
68199;BME280;55021;51.554;17.044;2023-05-02T14:02:57;100873.03;;;19.23;47.07
68199;BME280;55021;51.554;17.044;2023-05-02T14:17:59;100822.94;;;19.43;44.09
68199;BME280;55021;51.554;17.044;2023-05-02T14:33:02;100895.56;;;21.02;45.31
68199;BME280;55021;51.554;17.044;2023-05-02T14:48:04;100916.50;;;18.99;45.17
68199;BME280;55021;51.554;17.044;2023-05-02T15:03:07;100922.88;;;18.78;48.28
68199;BME280;55021;51.554;17.044;2023-05-02T15:18:09;100953.09;;;18.49;49.22
68199;BME280;55021;51.554;17.044;2023-05-02T15:33:11;100968.03;;;18.46;49.46
68199;BME280;55021;51.554;17.044;2023-05-02T15:48:14;100958.94;;;17.95;50.33
68199;BME280;55021;51.554;17.044;2023-05-02T16:03:16;100965.25;;;18.11;52.06
68199;BME280;55021;51.554;17.044;2023-05-02T16:18:19;101004.06;;;17.85;51.53
68199;BME280;55021;51.554;17.044;2023-05-02T16:33:21;101023.31;;;17.17;56.65
68199;BME280;55021;51.554;17.044;2023-05-02T16:48:24;101018.56;;;17.33;57.20
68199;BME280;55021;51.554;17.044;2023-05-02T17:03:27;101046.59;;;16.90;57.78
68199;BME280;55021;51.554;17.044;2023-05-02T17:18:30;101065.94;;;16.42;59.37
68199;BME280;55021;51.554;17.044;2023-05-02T17:33:32;101074.34;;;16.24;59.60
68199;BME280;55021;51.554;17.044;2023-05-02T17:48:35;101084.53;;;16.46;59.32
68199;BME280;55021;51.554;17.044;2023-05-02T18:03:37;101069.94;;;16.62;58.45
68199;BME280;55021;51.554;17.044;2023-05-02T18:18:41;101125.34;;;16.86;58.49
68199;BME280;55021;51.554;17.044;2023-05-02T18:33:43;101162.75;;;16.78;59.49
68199;BME280;55021;51.554;17.044;2023-05-02T18:48:46;101191.41;;;16.27;60.76
68199;BME280;55021;51.554;17.044;2023-05-02T19:03:48;101209.50;;;14.72;64.35
68199;BME280;55021;51.554;17.044;2023-05-02T19:18:50;101226.00;;;14.44;63.58
68199;BME280;55021;51.554;17.044;2023-05-02T19:33:53;101207.78;;;14.19;64.16
68199;BME280;55021;51.554;17.044;2023-05-02T19:48:58;101261.72;;;14.41;64.46
68199;BME280;55021;51.554;17.044;2023-05-02T20:04:11;101276.25;;;14.50;64.25
68199;BME280;55021;51.554;17.044;2023-05-02T20:19:27;101297.06;;;13.98;65.70
68199;BME280;55021;51.554;17.044;2023-05-02T20:34:32;101293.72;;;14.22;64.56
68199;BME280;55021;51.554;17.044;2023-05-02T20:49:35;101330.38;;;13.82;66.41
68199;BME280;55021;51.554;17.044;2023-05-02T21:04:38;101248.56;;;13.76;64.85
68199;BME280;55021;51.554;17.044;2023-05-02T21:19:40;101360.66;;;14.15;65.38
68199;BME280;55021;51.554;17.044;2023-05-02T21:34:43;101379.78;;;12.67;71.47
68199;BME280;55021;51.554;17.044;2023-05-02T21:49:46;101401.06;;;12.72;67.18
68199;BME280;55021;51.554;17.044;2023-05-02T22:04:48;101404.38;;;12.56;64.71
68199;BME280;55021;51.554;17.044;2023-05-02T22:19:51;101412.22;;;12.31;63.71
68199;BME280;55021;51.554;17.044;2023-05-02T22:34:54;101388.75;;;12.10;63.02
68199;BME280;55021;51.554;17.044;2023-05-02T22:49:56;101440.28;;;12.01;63.91
68199;BME280;55021;51.554;17.044;2023-05-02T23:04:59;101363.78;;;11.18;64.45
68199;BME280;55021;51.554;17.044;2023-05-02T23:20:02;101440.31;;;11.71;64.69
68199;BME280;55021;51.554;17.044;2023-05-02T23:35:05;101462.69;;;11.63;65.53
68199;BME280;55021;51.554;17.044;2023-05-02T23:50:08;101458.13;;;11.64;64.20
